メインページ
METAR-TAF:

METAR-TAF

空港 :

マニラ, フィリピン

ニノイ・アキノ国際空港

緯度: 14-31N, 経度: 121-00E, 海抜: 14m

現時点の気象観測

当レポートは37分前の14:00(UTC)に作成
南/南西の風 5kt、から西の間で変化する
気温 27°C
湿度 100%
気圧 1008 hPa
視程: 9000m
高度2200ftの雲は散在している
高度9000ftの曇り
小雨

METAR: RPLL 271400Z 21005KT 190V260 9000 -RA SCT022 OVC090 27/27 Q1008 NOSIG RMK A2977

時間: 22:37 (14:37 UTC)

予報

当レポートは3時間37分前の11:00(UTC)に作成
予報は27日の 12時(UTC)から 28日の 18時(UTC)まで有効
南西の風 8kt
視程: 9000m
高度2300ftの雲は散在している
高度10000ftの曇り
小雨
27日の 12時(UTC)から 27日の 18時(UTC)まで一時的に
西/南西の風 8kt
視程: 7000m
高度2000ftの雲は散在している, 積乱雲.
高度2200ftの雲は散在している
高度9000ftの曇り
激しい雷雨, 雨
27日の 18時(UTC)から 27日の 24時(UTC)まで一時的に
西/南西の風 6kt
視程: 8000m
高度2000ftの雲はほとんどない, 積乱雲.
高度2200ftの雲は散在している

TAF: RPLL 271100Z 2712/2818 22008KT 9000 -RA SCT023 OVC100 TX29/2806Z TN24/2721Z TEMPO 2712/2718 24008KT 7000 TSRA SCT020CB SCT022 OVC090 TEMPO 2718/2724 24006KT 8000 RA FEW020CB SCT022 0VC080

4,000以上の空港の気象観測と天気予報(METAR報とTAF報)

利用可能な観測所は地図上に黄色い丸と赤い丸で示す。

丸の上にカーソルを重ねると観測所名を参照できる。

次にクリックすると気象観測と天気予報を参照できる。

マップの切り替え:黒色「×」印の緑ボタンをクリックして拡大、「-」印の緑ボタンをクリックして縮小、緑色の三角印をクリックして隣りの地図に切り替え


METAR-TAF: